createdAt,value
2022-12-11T00:00:19.049Z,99.99
2022-12-11T00:01:19.043Z,99.99
2022-12-11T00:02:19.048Z,99.99
2022-12-11T00:03:19.075Z,99.99
2022-12-11T00:04:19.016Z,99.99
2022-12-11T00:05:19.224Z,99.99
2022-12-11T00:06:18.983Z,99.99
2022-12-11T00:07:18.963Z,99.99
2022-12-11T00:08:18.997Z,99.99
2022-12-11T00:09:19.922Z,99.99
2022-12-11T00:10:18.934Z,99.99
2022-12-11T00:11:18.929Z,99.99
2022-12-11T00:12:18.906Z,99.99
2022-12-11T00:13:18.894Z,99.99
2022-12-11T00:14:18.885Z,99.99
2022-12-11T00:15:18.874Z,99.99
2022-12-11T00:16:23.760Z,99.99
2022-12-11T00:17:19.841Z,99.99
2022-12-11T00:18:18.830Z,99.99
2022-12-11T00:19:18.836Z,99.99
2022-12-11T00:20:18.814Z,99.99
2022-12-11T00:21:18.795Z,99.99
2022-12-11T00:22:18.788Z,99.99
2022-12-11T00:23:18.775Z,99.99
2022-12-11T00:24:18.764Z,99.99
2022-12-11T00:25:18.788Z,99.99
2022-12-11T00:26:18.726Z,99.99
2022-12-11T00:27:18.716Z,99.99
2022-12-11T00:28:18.711Z,99.99
2022-12-11T00:29:18.706Z,99.99
2022-12-11T00:30:18.906Z,99.99
2022-12-11T00:31:18.774Z,99.74
2022-12-11T00:32:18.651Z,99.43
2022-12-11T00:33:18.657Z,99.33
2022-12-11T00:34:18.655Z,99.54
2022-12-11T00:35:18.617Z,99.54
2022-12-11T00:36:18.607Z,99.54
2022-12-11T00:37:18.634Z,99.49
2022-12-11T00:38:18.587Z,99.54
2022-12-11T00:39:18.578Z,99.33
2022-12-11T00:40:18.548Z,99.38
2022-12-11T00:41:18.548Z,99.22
2022-12-11T00:42:18.533Z,99.22
2022-12-11T00:43:18.518Z,99.43
2022-12-11T00:44:18.513Z,99.28
2022-12-11T00:45:18.498Z,99.38
2022-12-11T00:46:18.764Z,99.38
2022-12-11T00:47:18.468Z,99.43
2022-12-11T00:48:18.448Z,99.11
2022-12-11T00:49:18.725Z,98.91
2022-12-11T00:50:18.426Z,99.01
2022-12-11T00:51:18.423Z,99.22
2022-12-11T00:52:18.399Z,99.33
2022-12-11T00:53:18.404Z,99.22
2022-12-11T00:54:18.420Z,99.11
2022-12-11T00:55:18.388Z,98.59
2022-12-11T00:56:18.373Z,98.49
2022-12-11T00:57:18.348Z,98.49
2022-12-11T00:58:18.329Z,98.17
2022-12-11T00:59:18.330Z,98.28
2022-12-11T01:00:18.309Z,98.59
2022-12-11T01:01:18.327Z,98.49
2022-12-11T01:02:18.280Z,98.59
2022-12-11T01:03:18.266Z,98.49
2022-12-11T01:04:18.260Z,98.17
2022-12-11T01:05:18.268Z,98.07
2022-12-11T01:06:18.239Z,97.96
2022-12-11T01:07:18.218Z,97.75
2022-12-11T01:08:18.257Z,97.60
2022-12-11T01:09:18.200Z,97.44
2022-12-11T01:10:18.239Z,97.54
2022-12-11T01:11:18.167Z,97.50
2022-12-11T01:12:18.150Z,97.71
2022-12-11T01:13:18.149Z,97.81
2022-12-11T01:14:18.167Z,97.81
2022-12-11T01:15:18.118Z,97.96
2022-12-11T01:16:18.205Z,98.13
2022-12-11T01:17:18.104Z,98.23
2022-12-11T01:18:18.082Z,98.23
2022-12-11T01:19:18.076Z,98.13
2022-12-11T01:20:18.052Z,98.02
2022-12-11T01:21:18.052Z,98.23
2022-12-11T01:22:18.032Z,98.13
2022-12-11T01:23:18.038Z,97.92
2022-12-11T01:24:18.012Z,97.92
2022-12-11T01:25:17.992Z,97.92
2022-12-11T01:26:17.972Z,98.02
2022-12-11T01:27:17.968Z,98.02
2022-12-11T01:28:17.959Z,97.87
2022-12-11T01:29:17.956Z,97.92
2022-12-11T01:30:17.938Z,97.81
2022-12-11T01:31:17.953Z,98.02
2022-12-11T01:32:17.903Z,97.92
2022-12-11T01:33:17.909Z,97.92
2022-12-11T01:34:17.894Z,98.02
2022-12-11T01:35:18.823Z,98.02
2022-12-11T01:36:17.886Z,98.23
2022-12-11T01:37:17.843Z,98.55
2022-12-11T01:38:17.832Z,98.65
2022-12-11T01:39:17.834Z,98.86
2022-12-11T01:40:17.804Z,98.86
2022-12-11T01:41:17.789Z,98.55
2022-12-11T01:42:17.799Z,98.55
2022-12-11T01:43:17.771Z,98.44
2022-12-11T01:44:17.768Z,98.44
2022-12-11T01:45:17.746Z,98.55
2022-12-11T01:46:17.827Z,98.65
2022-12-11T01:47:17.714Z,98.44
2022-12-11T01:48:17.736Z,97.29
2022-12-11T01:49:17.696Z,96.87
2022-12-11T01:50:17.715Z,96.81
2022-12-11T01:51:17.696Z,97.12
2022-12-11T01:52:17.715Z,97.44
2022-12-11T01:53:17.673Z,97.12
2022-12-11T01:54:17.639Z,97.23
2022-12-11T01:55:17.615Z,97.33
2022-12-11T01:56:17.607Z,97.29
2022-12-11T01:57:17.586Z,96.81
2022-12-11T01:58:17.575Z,96.77
2022-12-11T01:59:17.803Z,96.97
2022-12-11T02:00:18.247Z,96.97
2022-12-11T02:01:17.597Z,96.77
2022-12-11T02:02:17.589Z,96.70
2022-12-11T02:03:17.517Z,96.49
2022-12-11T02:04:17.515Z,96.70
2022-12-11T02:05:17.498Z,96.59
2022-12-11T02:06:17.480Z,96.49
2022-12-11T02:07:17.477Z,96.70
2022-12-11T02:08:17.575Z,96.91
2022-12-11T02:09:17.449Z,97.02
2022-12-11T02:10:17.444Z,97.12
2022-12-11T02:11:17.414Z,97.12
2022-12-11T02:12:17.418Z,97.02
2022-12-11T02:13:17.388Z,97.38
2022-12-11T02:14:17.406Z,97.64
2022-12-11T02:15:17.376Z,97.86
2022-12-11T02:16:17.423Z,97.86
2022-12-11T02:17:17.339Z,98.07
2022-12-11T02:18:17.328Z,98.28
2022-12-11T02:19:17.328Z,98.17
2022-12-11T02:20:17.310Z,98.28
2022-12-11T02:21:17.290Z,98.38
2022-12-11T02:22:17.279Z,98.49
2022-12-11T02:23:17.276Z,98.49
2022-12-11T02:24:17.271Z,98.38
2022-12-11T02:25:17.236Z,98.38
2022-12-11T02:26:17.247Z,98.38
2022-12-11T02:27:17.210Z,98.07
2022-12-11T02:28:17.208Z,97.96
2022-12-11T02:29:17.200Z,97.64
2022-12-11T02:30:17.188Z,97.33
2022-12-11T02:31:17.188Z,97.44
2022-12-11T02:32:17.160Z,97.64
2022-12-11T02:33:17.150Z,97.54
2022-12-11T02:34:17.156Z,97.64
2022-12-11T02:35:17.112Z,97.12
2022-12-11T02:36:17.348Z,96.81
2022-12-11T02:37:17.331Z,96.81
2022-12-11T02:38:17.081Z,97.02
2022-12-11T02:39:17.077Z,97.33
2022-12-11T02:40:17.061Z,97.23
2022-12-11T02:41:17.031Z,97.23
2022-12-11T02:42:17.022Z,97.27
2022-12-11T02:43:17.016Z,96.81
2022-12-11T02:44:17.022Z,96.85
2022-12-11T02:45:16.999Z,97.02
2022-12-11T02:46:17.030Z,96.91
2022-12-11T02:47:16.964Z,96.85
2022-12-11T02:48:16.951Z,96.95
2022-12-11T02:49:16.950Z,96.43
2022-12-11T02:50:17.870Z,96.33
2022-12-11T02:51:16.911Z,96.43
2022-12-11T02:52:16.891Z,96.12
2022-12-11T02:53:16.884Z,96.12
2022-12-11T02:54:16.890Z,96.22
2022-12-11T02:55:16.863Z,96.22
2022-12-11T02:56:16.850Z,96.22
2022-12-11T02:57:16.839Z,95.59
2022-12-11T02:58:16.812Z,95.80
2022-12-11T02:59:16.820Z,96.12
2022-12-11T03:00:16.788Z,96.43
2022-12-11T03:01:16.828Z,96.53
2022-12-11T03:02:16.843Z,96.43
2022-12-11T03:03:16.761Z,96.75
2022-12-11T03:04:16.755Z,96.85
2022-12-11T03:05:16.742Z,96.85
2022-12-11T03:06:16.712Z,96.64
2022-12-11T03:07:16.713Z,96.95
2022-12-11T03:08:16.728Z,96.95
2022-12-11T03:09:16.685Z,97.17
2022-12-11T03:10:16.660Z,97.17
2022-12-11T03:11:16.654Z,97.27
2022-12-11T03:12:16.643Z,97.27
2022-12-11T03:13:16.634Z,97.06
2022-12-11T03:14:16.638Z,97.06
2022-12-11T03:15:16.604Z,97.06
2022-12-11T03:16:16.647Z,97.17
2022-12-11T03:17:16.590Z,97.06
2022-12-11T03:18:16.803Z,96.95
2022-12-11T03:19:16.565Z,97.06
2022-12-11T03:20:16.537Z,96.95
2022-12-11T03:21:16.535Z,97.06
2022-12-11T03:22:16.527Z,97.17
2022-12-11T03:23:16.513Z,97.17
2022-12-11T03:24:16.495Z,97.27
2022-12-11T03:25:16.491Z,97.38
2022-12-11T03:26:16.476Z,97.33
2022-12-11T03:27:16.466Z,97.23
2022-12-11T03:28:16.436Z,97.44
2022-12-11T03:29:16.456Z,97.54
2022-12-11T03:30:16.430Z,97.54
2022-12-11T03:31:16.679Z,97.23
2022-12-11T03:32:16.389Z,97.02
2022-12-11T03:33:17.178Z,97.02
2022-12-11T03:34:16.373Z,96.59
2022-12-11T03:35:16.675Z,96.49
2022-12-11T03:36:16.339Z,96.49
2022-12-11T03:37:16.329Z,96.34
2022-12-11T03:38:16.340Z,96.49
2022-12-11T03:39:16.315Z,96.59
2022-12-11T03:40:16.296Z,96.59
2022-12-11T03:41:16.274Z,96.66
2022-12-11T03:42:16.266Z,96.49
2022-12-11T03:43:16.256Z,96.49
2022-12-11T03:44:16.248Z,96.18
2022-12-11T03:45:16.226Z,95.76
2022-12-11T03:46:16.248Z,95.76
2022-12-11T03:47:17.160Z,95.86
2022-12-11T03:48:16.187Z,96.07
2022-12-11T03:49:16.198Z,96.39
2022-12-11T03:50:16.161Z,96.28
2022-12-11T03:51:16.154Z,96.28
2022-12-11T03:52:16.141Z,96.39
2022-12-11T03:53:16.148Z,96.49
2022-12-11T03:54:16.148Z,96.59
2022-12-11T03:55:16.111Z,96.59
2022-12-11T03:56:16.083Z,96.49
2022-12-11T03:57:16.079Z,96.28
2022-12-11T03:58:16.057Z,96.53
2022-12-11T03:59:16.068Z,96.64
2022-12-11T04:00:16.034Z,96.95
2022-12-11T04:01:16.024Z,97.06
2022-12-11T04:02:16.010Z,97.06
2022-12-11T04:03:16.959Z,97.27
2022-12-11T04:04:16.586Z,97.27
2022-12-11T04:05:15.978Z,97.38
2022-12-11T04:06:15.959Z,97.44
2022-12-11T04:07:15.950Z,97.33
2022-12-11T04:08:16.976Z,97.12
2022-12-11T04:09:15.939Z,96.91
2022-12-11T04:10:15.908Z,96.91
2022-12-11T04:11:16.701Z,97.02
2022-12-11T04:12:15.891Z,96.91
2022-12-11T04:13:16.022Z,96.87
2022-12-11T04:14:15.872Z,96.77
2022-12-11T04:15:15.857Z,96.45
2022-12-11T04:16:15.868Z,96.13
2022-12-11T04:17:15.829Z,95.82
2022-12-11T04:18:15.811Z,95.61
2022-12-11T04:19:15.820Z,95.86
2022-12-11T04:20:15.782Z,95.86
2022-12-11T04:21:15.783Z,96.07
2022-12-11T04:22:15.779Z,96.07
2022-12-11T04:23:15.742Z,96.28
2022-12-11T04:24:15.752Z,96.49
2022-12-11T04:25:15.719Z,96.70
2022-12-11T04:26:15.712Z,96.91
2022-12-11T04:27:15.694Z,97.12
2022-12-11T04:28:15.932Z,97.23
2022-12-11T04:29:15.681Z,97.23
2022-12-11T04:30:15.653Z,96.97
2022-12-11T04:31:15.695Z,96.91
2022-12-11T04:32:15.633Z,96.81
2022-12-11T04:33:16.580Z,96.39
2022-12-11T04:34:15.619Z,96.39
2022-12-11T04:35:15.603Z,96.49
2022-12-11T04:36:15.584Z,96.70
2022-12-11T04:37:15.563Z,96.59
2022-12-11T04:38:15.553Z,96.59
2022-12-11T04:39:15.554Z,96.49
2022-12-11T04:40:15.526Z,96.55
2022-12-11T04:41:15.518Z,96.55
2022-12-11T04:42:15.755Z,96.18
2022-12-11T04:43:15.507Z,96.18
2022-12-11T04:44:15.494Z,96.39
2022-12-11T04:45:16.428Z,96.24
2022-12-11T04:46:15.528Z,96.03
2022-12-11T04:47:15.456Z,96.13
2022-12-11T04:48:16.382Z,95.92
2022-12-11T04:49:15.434Z,95.50
2022-12-11T04:50:15.424Z,95.23
2022-12-11T04:51:15.398Z,94.98
2022-12-11T04:52:15.377Z,95.19
2022-12-11T04:53:15.374Z,95.40
2022-12-11T04:54:15.357Z,95.50
2022-12-11T04:55:15.346Z,95.40
2022-12-11T04:56:15.335Z,95.23
2022-12-11T04:57:15.315Z,95.44
2022-12-11T04:58:15.306Z,95.65
2022-12-11T04:59:15.314Z,95.65
2022-12-11T05:00:15.283Z,95.61
2022-12-11T05:01:15.307Z,95.61
2022-12-11T05:02:15.246Z,95.72
2022-12-11T05:03:15.237Z,95.61
2022-12-11T05:04:15.236Z,95.72
2022-12-11T05:05:15.230Z,95.82
2022-12-11T05:06:15.209Z,95.40
2022-12-11T05:07:15.186Z,95.08
2022-12-11T05:08:15.204Z,94.98
2022-12-11T05:09:15.425Z,95.08
2022-12-11T05:10:15.147Z,94.98
2022-12-11T05:11:15.139Z,94.67
2022-12-11T05:12:15.128Z,94.49
2022-12-11T05:13:15.116Z,94.67
2022-12-11T05:14:15.109Z,94.71
2022-12-11T05:15:15.084Z,94.39
2022-12-11T05:16:15.118Z,94.39
2022-12-11T05:17:15.055Z,94.71
2022-12-11T05:18:15.047Z,95.02
2022-12-11T05:19:15.138Z,94.71
2022-12-11T05:20:15.024Z,95.02
2022-12-11T05:21:15.012Z,95.23
2022-12-11T05:22:14.998Z,95.13
2022-12-11T05:23:14.989Z,94.81
2022-12-11T05:24:14.979Z,94.71
2022-12-11T05:25:14.957Z,94.08
2022-12-11T05:26:14.948Z,93.87
2022-12-11T05:27:14.951Z,94.18
2022-12-11T05:28:14.920Z,93.91
2022-12-11T05:29:14.926Z,93.91
2022-12-11T05:30:14.898Z,94.12
2022-12-11T05:31:14.966Z,94.12
2022-12-11T05:32:14.869Z,94.43
2022-12-11T05:33:14.856Z,94.85
2022-12-11T05:34:14.850Z,94.12
2022-12-11T05:35:14.829Z,92.86
2022-12-11T05:36:14.820Z,92.54
2022-12-11T05:37:14.810Z,92.33
2022-12-11T05:38:14.797Z,92.76
2022-12-11T05:39:14.790Z,92.96
2022-12-11T05:40:14.761Z,92.65
2022-12-11T05:41:14.750Z,92.12
2022-12-11T05:42:14.741Z,92.12
2022-12-11T05:43:14.730Z,91.71
2022-12-11T05:44:14.732Z,91.43
2022-12-11T05:45:14.696Z,91.64
2022-12-11T05:46:14.775Z,91.43
2022-12-11T05:47:14.682Z,90.48
2022-12-11T05:48:14.673Z,90.69
2022-12-11T05:49:17.479Z,91.22
2022-12-11T05:50:15.883Z,90.48
2022-12-11T05:51:14.631Z,90.48
2022-12-11T05:52:14.625Z,90.59
2022-12-11T05:53:14.602Z,91.11
2022-12-11T05:54:14.603Z,90.59
2022-12-11T05:55:14.581Z,90.48
2022-12-11T05:56:14.571Z,90.27
2022-12-11T05:57:14.552Z,90.38
2022-12-11T05:58:14.539Z,90.17
2022-12-11T05:59:14.545Z,90.17
2022-12-11T06:00:14.513Z,89.12
2022-12-11T06:01:14.501Z,89.12
2022-12-11T06:02:14.568Z,89.12
2022-12-11T06:03:14.603Z,88.49
2022-12-11T06:04:14.483Z,89.12
2022-12-11T06:05:14.461Z,89.43
2022-12-11T06:06:14.444Z,89.75
2022-12-11T06:07:14.431Z,90.48
2022-12-11T06:08:14.428Z,91.01
2022-12-11T06:09:14.402Z,91.22
2022-12-11T06:10:14.393Z,91.53
2022-12-11T06:11:17.284Z,91.33
2022-12-11T06:12:15.365Z,90.91
2022-12-11T06:13:14.343Z,91.22
2022-12-11T06:14:14.345Z,91.53
2022-12-11T06:15:14.331Z,91.43
2022-12-11T06:16:14.354Z,91.01
2022-12-11T06:17:14.295Z,90.91
2022-12-11T06:18:14.285Z,91.64
2022-12-11T06:19:14.285Z,92.27
2022-12-11T06:20:14.266Z,92.96
2022-12-11T06:21:14.247Z,93.70
2022-12-11T06:22:14.237Z,93.59
2022-12-11T06:23:14.238Z,93.70
2022-12-11T06:24:14.215Z,94.12
2022-12-11T06:25:14.363Z,93.80
2022-12-11T06:26:14.186Z,92.65
2022-12-11T06:27:14.195Z,92.65
2022-12-11T06:28:14.175Z,92.96
2022-12-11T06:29:14.156Z,93.28
2022-12-11T06:30:14.136Z,93.18
2022-12-11T06:31:14.198Z,93.49
2022-12-11T06:32:14.116Z,92.86
2022-12-11T06:33:14.109Z,91.81
2022-12-11T06:34:14.105Z,91.71
2022-12-11T06:35:14.102Z,90.86
2022-12-11T06:36:14.075Z,90.66
2022-12-11T06:37:14.055Z,91.07
2022-12-11T06:38:14.047Z,90.76
2022-12-11T06:39:14.026Z,91.71
2022-12-11T06:40:14.007Z,92.54
2022-12-11T06:41:14.003Z,92.58
2022-12-11T06:42:13.989Z,92.44
2022-12-11T06:43:13.978Z,90.69
2022-12-11T06:44:13.984Z,90.91
2022-12-11T06:45:13.967Z,91.60
2022-12-11T06:46:14.008Z,90.97
2022-12-11T06:47:13.926Z,91.22
2022-12-11T06:48:13.908Z,91.33
2022-12-11T06:49:13.938Z,91.43
2022-12-11T06:50:13.885Z,91.53
2022-12-11T06:51:13.872Z,91.33
2022-12-11T06:52:18.405Z,91.64
2022-12-11T06:53:13.852Z,92.38
2022-12-11T06:54:13.838Z,91.64
2022-12-11T06:55:14.095Z,90.69
2022-12-11T06:56:13.822Z,90.80
2022-12-11T06:57:13.800Z,91.74
2022-12-11T06:58:13.809Z,92.69
2022-12-11T06:59:13.802Z,93.01
2022-12-11T07:00:13.772Z,92.48
2022-12-11T07:01:13.818Z,91.96
2022-12-11T07:02:13.782Z,91.43
2022-12-11T07:03:13.735Z,91.96
2022-12-11T07:04:13.724Z,92.69
2022-12-11T07:05:13.831Z,93.01
2022-12-11T07:06:13.681Z,92.76
2022-12-11T07:07:13.669Z,92.23
2022-12-11T07:08:13.744Z,92.33
2022-12-11T07:09:13.662Z,91.71
2022-12-11T07:10:13.640Z,91.39
2022-12-11T07:11:13.632Z,91.07
2022-12-11T07:12:13.622Z,91.71
2022-12-11T07:13:13.611Z,91.81
2022-12-11T07:14:13.601Z,89.96
2022-12-11T07:15:13.872Z,89.50
2022-12-11T07:16:13.649Z,89.12
2022-12-11T07:17:13.558Z,89.50
2022-12-11T07:18:13.532Z,89.60
2022-12-11T07:19:13.535Z,88.87
2022-12-11T07:20:13.521Z,89.60
2022-12-11T07:21:13.502Z,90.02
2022-12-11T07:22:13.497Z,89.96
2022-12-11T07:23:13.477Z,90.17
2022-12-11T07:24:13.492Z,90.69
2022-12-11T07:25:13.641Z,90.48
2022-12-11T07:26:13.439Z,91.11
2022-12-11T07:27:13.461Z,91.43
2022-12-11T07:28:16.643Z,91.81
2022-12-11T07:29:13.444Z,92.23
2022-12-11T07:30:13.403Z,92.23
2022-12-11T07:31:13.372Z,92.02
2022-12-11T07:32:13.488Z,92.54
2022-12-11T07:33:13.343Z,92.50
2022-12-11T07:34:13.372Z,92.71
2022-12-11T07:35:13.670Z,92.82
2022-12-11T07:36:13.313Z,93.02
2022-12-11T07:37:13.305Z,92.82
2022-12-11T07:38:13.293Z,92.82
2022-12-11T07:39:13.287Z,92.71
2022-12-11T07:40:13.265Z,92.50
2022-12-11T07:41:13.247Z,92.71
2022-12-11T07:42:13.237Z,92.65
2022-12-11T07:43:13.223Z,92.82
2022-12-11T07:44:13.224Z,92.82
2022-12-11T07:45:13.446Z,93.02
2022-12-11T07:46:13.290Z,92.92
2022-12-11T07:47:13.171Z,93.13
2022-12-11T07:48:13.161Z,92.92
2022-12-11T07:49:13.154Z,93.13
2022-12-11T07:50:13.134Z,93.51
2022-12-11T07:51:13.127Z,93.40
2022-12-11T07:52:13.106Z,93.13
2022-12-11T07:53:13.093Z,93.30
2022-12-11T07:54:13.092Z,92.99
2022-12-11T07:55:13.375Z,92.67
2022-12-11T07:56:13.071Z,92.19
2022-12-11T07:57:14.384Z,91.87
2022-12-11T07:58:13.039Z,92.19
2022-12-11T07:59:13.027Z,92.40
2022-12-11T08:00:13.015Z,91.77
2022-12-11T08:01:13.029Z,91.66
2022-12-11T08:02:13.036Z,91.87
2022-12-11T08:03:12.977Z,92.08
2022-12-11T08:04:12.978Z,91.97
2022-12-11T08:05:13.111Z,92.29
2022-12-11T08:06:12.936Z,92.35
2022-12-11T08:07:12.923Z,91.83
2022-12-11T08:08:12.947Z,91.09
2022-12-11T08:09:20.730Z,90.78
2022-12-11T08:10:13.888Z,90.32
2022-12-11T08:11:12.889Z,90.64
2022-12-11T08:12:12.882Z,90.84
2022-12-11T08:13:12.867Z,90.91
2022-12-11T08:14:12.857Z,90.38
2022-12-11T08:15:13.892Z,90.23
2022-12-11T08:16:12.998Z,89.12
2022-12-11T08:17:12.798Z,88.71
2022-12-11T08:18:12.787Z,89.34
2022-12-11T08:19:12.781Z,89.61
2022-12-11T08:20:12.758Z,89.29
2022-12-11T08:21:12.756Z,88.56
2022-12-11T08:22:12.745Z,88.62
2022-12-11T08:23:12.728Z,88.94
2022-12-11T08:24:12.718Z,87.79
2022-12-11T08:25:13.050Z,87.05
2022-12-11T08:26:12.690Z,86.88
2022-12-11T08:27:12.670Z,86.82
2022-12-11T08:28:12.659Z,87.66
2022-12-11T08:29:12.665Z,88.60
2022-12-11T08:30:12.639Z,89.23
2022-12-11T08:31:12.693Z,89.50
2022-12-11T08:32:12.724Z,88.49
2022-12-11T08:33:12.602Z,88.39
2022-12-11T08:34:12.600Z,88.29
2022-12-11T08:35:12.646Z,87.87
2022-12-11T08:36:12.562Z,88.07
2022-12-11T08:37:12.543Z,88.60
2022-12-11T08:38:12.530Z,88.07
2022-12-11T08:39:12.555Z,87.80
2022-12-11T08:40:12.541Z,88.71
2022-12-11T08:41:12.531Z,88.92
2022-12-11T08:42:12.480Z,87.87
2022-12-11T08:43:12.480Z,87.87
2022-12-11T08:44:16.301Z,88.49
2022-12-11T08:45:12.573Z,89.12
2022-12-11T08:46:12.480Z,90.28
2022-12-11T08:47:12.419Z,90.80
2022-12-11T08:48:12.424Z,91.43
2022-12-11T08:49:12.401Z,91.75
2022-12-11T08:50:12.388Z,91.39
2022-12-11T08:51:12.381Z,91.33
2022-12-11T08:52:12.361Z,90.70
2022-12-11T08:53:12.343Z,90.70
2022-12-11T08:54:12.352Z,91.22
2022-12-11T08:55:12.586Z,92.10
2022-12-11T08:56:12.314Z,92.42
2022-12-11T08:57:12.293Z,92.32
2022-12-11T08:58:12.282Z,92.63
2022-12-11T08:59:12.273Z,93.21
2022-12-11T09:00:12.263Z,93.01
2022-12-11T09:01:12.351Z,92.58
2022-12-11T09:02:12.275Z,92.06
2022-12-11T09:03:13.058Z,91.85
2022-12-11T09:04:12.224Z,91.75
2022-12-11T09:05:12.614Z,91.64
2022-12-11T09:06:12.183Z,91.33
2022-12-11T09:07:12.174Z,91.85
2022-12-11T09:08:12.243Z,91.68
2022-12-11T09:09:12.165Z,91.37
2022-12-11T09:10:12.145Z,92.00
2022-12-11T09:11:12.125Z,90.74
2022-12-11T09:12:12.365Z,90.42
2022-12-11T09:13:12.094Z,90.84
2022-12-11T09:14:12.105Z,90.38
2022-12-11T09:15:12.377Z,89.48
2022-12-11T09:16:12.130Z,90.36
2022-12-11T09:17:12.045Z,90.95
2022-12-11T09:18:12.043Z,90.95
2022-12-11T09:19:12.025Z,91.05
2022-12-11T09:20:12.004Z,90.80
2022-12-11T09:21:11.993Z,90.76
2022-12-11T09:22:11.985Z,89.75
2022-12-11T09:23:11.963Z,89.02
2022-12-11T09:24:11.966Z,88.71
2022-12-11T09:25:12.100Z,89.69
2022-12-11T09:26:11.928Z,90.11
2022-12-11T09:27:11.917Z,91.22
2022-12-11T09:28:11.909Z,91.43
2022-12-11T09:29:11.908Z,91.18
2022-12-11T09:30:11.879Z,89.75
2022-12-11T09:31:11.909Z,89.54
2022-12-11T09:32:11.856Z,90.17
2022-12-11T09:33:11.839Z,90.80
2022-12-11T09:34:11.855Z,90.45
2022-12-11T09:35:12.068Z,90.23
2022-12-11T09:36:11.821Z,89.82
2022-12-11T09:37:11.788Z,89.29
2022-12-11T09:38:11.789Z,89.61
2022-12-11T09:39:11.769Z,89.82
2022-12-11T09:40:11.761Z,89.36
2022-12-11T09:41:11.748Z,88.94
2022-12-11T09:42:11.739Z,88.98
2022-12-11T09:43:11.718Z,88.77
2022-12-11T09:44:11.716Z,89.23
2022-12-11T09:45:11.870Z,89.61
2022-12-11T09:46:11.705Z,89.97
2022-12-11T09:47:11.672Z,89.37
2022-12-11T09:48:11.682Z,89.97
2022-12-11T09:49:11.649Z,90.07
2022-12-11T09:50:11.682Z,90.07
2022-12-11T09:51:11.621Z,89.34
2022-12-11T09:52:11.611Z,89.65
2022-12-11T09:53:11.591Z,89.97
2022-12-11T09:54:11.590Z,89.72
2022-12-11T09:55:11.801Z,89.72
2022-12-11T09:56:11.560Z,89.36
2022-12-11T09:57:11.549Z,88.94
2022-12-11T09:58:11.532Z,88.42
2022-12-11T09:59:11.551Z,88.31
2022-12-11T10:00:11.533Z,87.93
2022-12-11T10:01:11.543Z,88.46
2022-12-11T10:02:11.524Z,88.49
2022-12-11T10:03:11.481Z,89.44
2022-12-11T10:04:11.483Z,90.38
2022-12-11T10:05:11.602Z,91.12
2022-12-11T10:06:11.442Z,90.38
2022-12-11T10:07:11.432Z,90.07
2022-12-11T10:08:11.458Z,89.97
2022-12-11T10:09:11.411Z,90.28
2022-12-11T10:10:11.381Z,90.28
2022-12-11T10:11:11.387Z,90.38
2022-12-11T10:12:11.363Z,90.49
2022-12-11T10:13:11.350Z,90.07
2022-12-11T10:14:11.361Z,89.17
2022-12-11T10:15:11.436Z,89.17
2022-12-11T10:16:11.360Z,89.48
2022-12-11T10:17:11.298Z,89.06
2022-12-11T10:18:11.282Z,89.17
2022-12-11T10:19:11.283Z,89.06
2022-12-11T10:20:11.274Z,89.17
2022-12-11T10:21:11.250Z,89.44
2022-12-11T10:22:11.233Z,89.34
2022-12-11T10:23:11.243Z,89.54
2022-12-11T10:24:11.222Z,89.69
2022-12-11T10:25:12.411Z,89.48
2022-12-11T10:26:11.179Z,89.79
2022-12-11T10:27:11.184Z,89.86
2022-12-11T10:28:11.405Z,89.75
2022-12-11T10:29:11.160Z,89.75
2022-12-11T10:30:11.136Z,89.75
2022-12-11T10:31:11.184Z,89.61
2022-12-11T10:32:11.116Z,88.49
2022-12-11T10:33:11.118Z,88.29
2022-12-11T10:34:11.096Z,88.60
2022-12-11T10:35:11.375Z,88.81
2022-12-11T10:36:11.068Z,88.81
2022-12-11T10:37:11.056Z,88.71
2022-12-11T10:38:11.035Z,89.12
2022-12-11T10:39:11.048Z,89.02
2022-12-11T10:40:11.262Z,88.60
2022-12-11T10:41:11.006Z,88.71
2022-12-11T10:42:10.998Z,88.49
2022-12-11T10:43:10.977Z,88.87
2022-12-11T10:44:10.976Z,89.82
2022-12-11T10:45:11.162Z,89.82
2022-12-11T10:46:10.987Z,89.09
2022-12-11T10:47:10.938Z,88.35
2022-12-11T10:48:10.913Z,88.04
2022-12-11T10:49:10.928Z,87.51
2022-12-11T10:50:10.910Z,87.51
2022-12-11T10:51:10.909Z,87.62
2022-12-11T10:52:10.887Z,87.41
2022-12-11T10:53:10.860Z,86.85
2022-12-11T10:54:10.852Z,86.95
2022-12-11T10:55:11.112Z,86.80
2022-12-11T10:56:10.829Z,86.38
2022-12-11T10:57:10.808Z,86.60
2022-12-11T10:58:10.800Z,86.49
2022-12-11T10:59:10.805Z,86.18
2022-12-11T11:00:10.769Z,85.72
2022-12-11T11:01:10.914Z,86.14
2022-12-11T11:02:10.748Z,86.24
2022-12-11T11:03:10.754Z,85.61
2022-12-11T11:04:10.730Z,84.88
2022-12-11T11:05:10.848Z,85.19
2022-12-11T11:06:10.689Z,85.26
2022-12-11T11:07:10.690Z,84.46
2022-12-11T11:08:10.691Z,84.56
2022-12-11T11:09:10.670Z,84.88
2022-12-11T11:10:10.655Z,84.36
2022-12-11T11:11:10.632Z,84.78
2022-12-11T11:12:10.621Z,84.67
2022-12-11T11:13:10.621Z,84.67
2022-12-11T11:14:10.603Z,84.53
2022-12-11T11:15:10.801Z,84.22
2022-12-11T11:16:10.622Z,85.05
2022-12-11T11:17:10.562Z,84.53
2022-12-11T11:18:10.545Z,84.25
2022-12-11T11:19:10.541Z,84.15
2022-12-11T11:20:10.530Z,84.05
2022-12-11T11:21:10.509Z,84.56
2022-12-11T11:22:10.491Z,84.88
2022-12-11T11:23:10.492Z,84.99
2022-12-11T11:24:10.484Z,84.50
2022-12-11T11:25:10.814Z,82.55
2022-12-11T11:26:10.443Z,82.90
2022-12-11T11:27:14.033Z,83.11
2022-12-11T11:28:10.473Z,83.64
2022-12-11T11:29:10.423Z,83.01
2022-12-11T11:30:10.392Z,82.69
2022-12-11T11:31:10.506Z,83.53
2022-12-11T11:32:10.373Z,83.01
2022-12-11T11:33:10.363Z,83.22
2022-12-11T11:34:10.353Z,84.05
2022-12-11T11:35:10.515Z,84.37
2022-12-11T11:36:10.314Z,84.37
2022-12-11T11:37:10.314Z,84.68
2022-12-11T11:38:10.294Z,85.21
2022-12-11T11:39:10.310Z,85.00
2022-12-11T11:40:10.274Z,84.85
2022-12-11T11:41:14.767Z,85.80
2022-12-11T11:42:10.256Z,85.59
2022-12-11T11:43:10.236Z,84.54
2022-12-11T11:44:10.226Z,84.33
2022-12-11T11:45:10.458Z,83.42
2022-12-11T11:46:10.232Z,83.74
2022-12-11T11:47:10.203Z,84.79
2022-12-11T11:48:11.682Z,85.31
2022-12-11T11:49:10.178Z,84.89
2022-12-11T11:50:10.141Z,85.21
2022-12-11T11:51:10.135Z,86.15
2022-12-11T11:52:10.125Z,86.68
2022-12-11T11:53:10.136Z,87.03
2022-12-11T11:54:10.105Z,87.03
2022-12-11T11:55:10.777Z,87.03
2022-12-11T11:56:10.075Z,87.38
2022-12-11T11:57:10.067Z,88.54
2022-12-11T11:58:10.049Z,88.96
2022-12-11T11:59:10.047Z,88.64
2022-12-11T12:00:10.042Z,88.43
2022-12-11T12:01:10.012Z,88.85
2022-12-11T12:02:09.998Z,88.64
2022-12-11T12:03:10.021Z,88.07
2022-12-11T12:04:09.977Z,88.07
2022-12-11T12:05:10.086Z,88.18
2022-12-11T12:06:14.963Z,87.93
2022-12-11T12:07:10.961Z,87.83
2022-12-11T12:08:09.940Z,87.89
2022-12-11T12:09:09.918Z,87.64
2022-12-11T12:10:09.960Z,86.63
2022-12-11T12:11:09.888Z,86.60
2022-12-11T12:12:09.869Z,86.07
2022-12-11T12:13:30.213Z,85.02
2022-12-11T12:14:29.226Z,86.28
2022-12-11T12:15:11.033Z,86.28
2022-12-11T12:16:29.222Z,85.09
2022-12-11T12:17:10.897Z,83.45
2022-12-11T12:18:09.804Z,83.66
2022-12-11T12:19:09.802Z,84.08
2022-12-11T12:20:09.771Z,84.61
2022-12-11T12:21:09.761Z,84.71
2022-12-11T12:22:09.750Z,84.71
2022-12-11T12:23:09.749Z,85.90
2022-12-11T12:24:09.729Z,86.18
2022-12-11T12:25:10.062Z,86.49
2022-12-11T12:26:09.699Z,86.60
2022-12-11T12:27:29.176Z,86.11
2022-12-11T12:28:10.679Z,86.63
2022-12-11T12:29:09.680Z,86.63
2022-12-11T12:30:09.653Z,86.85
2022-12-11T12:31:09.695Z,87.26
2022-12-11T12:32:09.647Z,87.89
2022-12-11T12:33:09.631Z,88.14
2022-12-11T12:34:09.612Z,88.04
2022-12-11T12:35:09.994Z,88.24
2022-12-11T12:36:09.573Z,88.24
2022-12-11T12:37:09.561Z,87.93
2022-12-11T12:38:09.574Z,88.24
2022-12-11T12:39:09.551Z,88.24
2022-12-11T12:40:09.519Z,88.04
2022-12-11T12:41:09.524Z,87.51
2022-12-11T12:42:09.513Z,87.83
2022-12-11T12:43:09.497Z,88.04
2022-12-11T12:44:09.521Z,86.82
2022-12-11T12:45:09.871Z,86.40
2022-12-11T12:46:09.512Z,87.13
2022-12-11T12:47:09.444Z,87.34
2022-12-11T12:48:09.423Z,86.96
2022-12-11T12:49:09.683Z,87.38
2022-12-11T12:50:09.483Z,88.12
2022-12-11T12:51:09.383Z,88.64
2022-12-11T12:52:09.372Z,88.89